createdAt,value
2019-01-11T00:00:56.283Z,1010.31
2019-01-11T00:01:56.300Z,1010.27
2019-01-11T00:02:56.254Z,1010.33
2019-01-11T00:03:56.236Z,1010.32
2019-01-11T00:04:56.225Z,1010.33
2019-01-11T00:05:56.216Z,1010.29
2019-01-11T00:06:56.230Z,1010.30
2019-01-11T00:07:56.198Z,1010.27
2019-01-11T00:08:56.188Z,1010.24
2019-01-11T00:09:56.179Z,1010.25
2019-01-11T00:10:56.178Z,1010.24
2019-01-11T00:11:56.156Z,1010.23
2019-01-11T00:12:56.158Z,1010.19
2019-01-11T00:13:56.128Z,1010.17
2019-01-11T00:14:56.118Z,1010.17
2019-01-11T00:15:56.112Z,1010.18
2019-01-11T00:16:56.102Z,1010.18
2019-01-11T00:17:56.103Z,1010.12
2019-01-11T00:18:56.076Z,1010.13
2019-01-11T00:19:56.068Z,1010.12
2019-01-11T00:20:56.065Z,1010.11
2019-01-11T00:21:56.049Z,1010.11
2019-01-11T00:22:56.054Z,1010.08
2019-01-11T00:23:56.042Z,1010.04
2019-01-11T00:24:56.010Z,1010.06
2019-01-11T00:25:56.003Z,1010.03
2019-01-11T00:26:56.007Z,1009.97
2019-01-11T00:27:55.988Z,1010.00
2019-01-11T00:28:55.990Z,1010.01
2019-01-11T00:29:56.030Z,1009.98
2019-01-11T00:30:55.953Z,1010.05
2019-01-11T00:31:56.006Z,1010.01
2019-01-11T00:32:55.927Z,1010.02
2019-01-11T00:33:55.918Z,1009.97
2019-01-11T00:34:55.911Z,1009.98
2019-01-11T00:35:55.892Z,1009.95
2019-01-11T00:36:55.922Z,1009.94
2019-01-11T00:37:55.874Z,1009.95
2019-01-11T00:38:55.886Z,1009.91
2019-01-11T00:39:55.862Z,1009.93
2019-01-11T00:40:55.842Z,1009.89
2019-01-11T00:41:55.834Z,1009.91
2019-01-11T00:42:55.822Z,1009.92
2019-01-11T00:43:55.806Z,1009.87
2019-01-11T00:44:55.818Z,1009.84
2019-01-11T00:45:55.786Z,1009.85
2019-01-11T00:46:55.779Z,1009.81
2019-01-11T00:47:55.770Z,1009.84
2019-01-11T00:48:55.757Z,1009.88
2019-01-11T00:49:55.768Z,1009.87
2019-01-11T00:50:55.733Z,1009.86
2019-01-11T00:51:55.729Z,1009.83
2019-01-11T00:52:55.724Z,1009.85
2019-01-11T00:53:55.753Z,1009.81
2019-01-11T00:54:55.694Z,1009.81
2019-01-11T00:55:55.696Z,1009.83
2019-01-11T00:56:55.669Z,1009.81
2019-01-11T00:57:55.676Z,1009.85
2019-01-11T00:58:55.646Z,1009.80
2019-01-11T00:59:55.641Z,1009.84
2019-01-11T01:00:55.633Z,1009.82
2019-01-11T01:01:55.620Z,1009.78
2019-01-11T01:02:55.643Z,1009.78
2019-01-11T01:03:55.592Z,1009.76
2019-01-11T01:04:55.591Z,1009.76
2019-01-11T01:05:55.574Z,1009.75
2019-01-11T01:06:55.566Z,1009.75
2019-01-11T01:07:55.571Z,1009.77
2019-01-11T01:08:55.560Z,1009.76
2019-01-11T01:09:55.538Z,1009.73
2019-01-11T01:10:55.516Z,1009.72
2019-01-11T01:11:55.513Z,1009.69
2019-01-11T01:12:55.520Z,1009.66
2019-01-11T01:13:55.487Z,1009.68
2019-01-11T01:14:55.480Z,1009.71
2019-01-11T01:15:55.482Z,1009.69
2019-01-11T01:16:55.456Z,1009.72
2019-01-11T01:17:55.445Z,1009.69
2019-01-11T01:18:55.431Z,1009.69
2019-01-11T01:19:55.426Z,1009.69
2019-01-11T01:20:55.440Z,1009.69
2019-01-11T01:21:55.421Z,1009.66
2019-01-11T01:22:55.390Z,1009.64
2019-01-11T01:23:55.385Z,1009.62
2019-01-11T01:24:55.374Z,1009.64
2019-01-11T01:25:55.360Z,1009.62
2019-01-11T01:26:55.374Z,1009.63
2019-01-11T01:27:55.367Z,1009.65
2019-01-11T01:28:55.328Z,1009.62
2019-01-11T01:29:55.318Z,1009.60
2019-01-11T01:30:55.303Z,1009.63
2019-01-11T01:31:55.299Z,1009.61
2019-01-11T01:32:55.291Z,1009.64
2019-01-11T01:33:55.302Z,1009.63
2019-01-11T01:34:55.274Z,1009.63
2019-01-11T01:35:55.252Z,1009.61
2019-01-11T01:36:55.241Z,1009.61
2019-01-11T01:37:55.263Z,1009.65
2019-01-11T01:38:55.239Z,1009.63
2019-01-11T01:39:55.216Z,1009.62
2019-01-11T01:40:55.199Z,1009.61
2019-01-11T01:41:55.189Z,1009.59
2019-01-11T01:42:55.185Z,1009.60
2019-01-11T01:43:55.192Z,1009.60
2019-01-11T01:44:55.159Z,1009.61
2019-01-11T01:45:55.147Z,1009.63
2019-01-11T01:46:55.139Z,1009.59
2019-01-11T01:47:55.123Z,1009.56
2019-01-11T01:48:55.132Z,1009.53
2019-01-11T01:49:55.103Z,1009.61
2019-01-11T01:50:55.106Z,1009.57
2019-01-11T01:51:55.089Z,1009.55
2019-01-11T01:52:55.075Z,1009.58
2019-01-11T01:53:55.078Z,1009.57
2019-01-11T01:54:55.048Z,1009.52
2019-01-11T01:55:55.044Z,1009.54
2019-01-11T01:56:55.032Z,1009.50
2019-01-11T01:57:55.020Z,1009.56
2019-01-11T01:58:55.031Z,1009.53
2019-01-11T01:59:55.021Z,1009.50
2019-01-11T02:00:54.986Z,1009.52
2019-01-11T02:01:54.975Z,1009.49
2019-01-11T02:02:54.962Z,1009.51
2019-01-11T02:03:54.977Z,1009.48
2019-01-11T02:04:54.947Z,1009.46
2019-01-11T02:05:54.935Z,1009.43
2019-01-11T02:06:54.926Z,1009.45
2019-01-11T02:07:54.910Z,1009.44
2019-01-11T02:08:54.919Z,1009.42
2019-01-11T02:09:54.893Z,1009.41
2019-01-11T02:10:54.901Z,1009.36
2019-01-11T02:11:54.866Z,1009.32
2019-01-11T02:12:54.859Z,1009.31
2019-01-11T02:13:54.847Z,1009.40
2019-01-11T02:14:54.834Z,1009.34
2019-01-11T02:15:54.855Z,1009.30
2019-01-11T02:16:54.827Z,1009.34
2019-01-11T02:17:54.807Z,1009.27
2019-01-11T02:18:55.410Z,1009.28
2019-01-11T02:19:54.787Z,1009.24
2019-01-11T02:20:54.774Z,1009.27
2019-01-11T02:21:54.780Z,1009.29
2019-01-11T02:22:54.748Z,1009.30
2019-01-11T02:23:54.743Z,1009.23
2019-01-11T02:24:54.731Z,1009.20
2019-01-11T02:25:54.719Z,1009.22
2019-01-11T02:26:54.723Z,1009.22
2019-01-11T02:27:54.704Z,1009.19
2019-01-11T02:28:54.694Z,1009.20
2019-01-11T02:29:54.677Z,1009.16
2019-01-11T02:30:54.677Z,1009.21
2019-01-11T02:31:54.652Z,1009.15
2019-01-11T02:32:54.661Z,1009.12
2019-01-11T02:33:54.634Z,1009.15
2019-01-11T02:34:54.637Z,1009.15
2019-01-11T02:35:54.617Z,1009.10
2019-01-11T02:36:54.612Z,1009.09
2019-01-11T02:37:54.611Z,1009.05
2019-01-11T02:38:54.583Z,1009.04
2019-01-11T02:39:54.582Z,1009.04
2019-01-11T02:40:54.556Z,1009.03
2019-01-11T02:41:54.548Z,1008.98
2019-01-11T02:42:54.545Z,1008.97
2019-01-11T02:43:54.527Z,1008.95
2019-01-11T02:44:54.531Z,1008.87
2019-01-11T02:45:54.507Z,1008.88
2019-01-11T02:46:54.491Z,1008.92
2019-01-11T02:47:54.507Z,1008.90
2019-01-11T02:49:09.197Z,1008.86
2019-01-11T02:49:55.121Z,1008.85
2019-01-11T02:50:54.455Z,1008.84
2019-01-11T02:51:54.445Z,1008.82
2019-01-11T02:52:54.433Z,1008.82
2019-01-11T02:53:54.421Z,1008.84
2019-01-11T02:54:54.426Z,1008.85
2019-01-11T02:55:54.401Z,1008.85
2019-01-11T02:56:54.383Z,1008.78
2019-01-11T02:57:54.379Z,1008.81
2019-01-11T02:58:54.367Z,1008.82
2019-01-11T02:59:54.379Z,1008.75
2019-01-11T03:00:54.342Z,1008.79
2019-01-11T03:01:54.334Z,1008.78
2019-01-11T03:02:54.327Z,1008.75
2019-01-11T03:03:54.321Z,1008.77
2019-01-11T03:04:54.305Z,1008.74
2019-01-11T03:05:54.311Z,1008.74
2019-01-11T03:06:54.283Z,1008.65
2019-01-11T03:07:54.281Z,1008.66
2019-01-11T03:08:54.256Z,1008.67
2019-01-11T03:09:54.249Z,1008.62
2019-01-11T03:10:54.263Z,1008.61
2019-01-11T03:11:54.228Z,1008.64
2019-01-11T03:12:54.219Z,1008.59
2019-01-11T03:13:54.201Z,1008.59
2019-01-11T03:14:54.194Z,1008.63
2019-01-11T03:15:54.204Z,1008.56
2019-01-11T03:16:54.178Z,1008.61
2019-01-11T03:17:54.192Z,1008.58
2019-01-11T03:18:54.152Z,1008.58
2019-01-11T03:19:54.141Z,1008.61
2019-01-11T03:20:54.147Z,1008.66
2019-01-11T03:21:54.117Z,1008.60
2019-01-11T03:22:54.109Z,1008.58
2019-01-11T03:23:54.119Z,1008.56
2019-01-11T03:24:54.092Z,1008.63
2019-01-11T03:25:54.104Z,1008.61
2019-01-11T03:26:54.068Z,1008.60
2019-01-11T03:27:54.058Z,1008.59
2019-01-11T03:28:54.042Z,1008.58
2019-01-11T03:29:54.039Z,1008.56
2019-01-11T03:30:54.051Z,1008.57
2019-01-11T03:31:54.015Z,1008.56
2019-01-11T03:32:54.019Z,1008.56
2019-01-11T03:33:53.990Z,1008.55
2019-01-11T03:34:53.981Z,1008.55
2019-01-11T03:35:53.973Z,1008.51
2019-01-11T03:36:53.964Z,1008.49
2019-01-11T03:37:53.972Z,1008.53
2019-01-11T03:38:53.944Z,1008.61
2019-01-11T03:39:53.928Z,1008.53
2019-01-11T03:40:53.925Z,1008.51
2019-01-11T03:41:53.953Z,1008.53
2019-01-11T03:42:53.899Z,1008.57
2019-01-11T03:43:53.907Z,1008.49
2019-01-11T03:44:53.887Z,1008.47
2019-01-11T03:45:53.863Z,1008.45
2019-01-11T03:46:53.855Z,1008.40
2019-01-11T03:47:53.847Z,1008.44
2019-01-11T03:48:53.857Z,1008.47
2019-01-11T03:49:54.881Z,1008.46
2019-01-11T03:50:53.816Z,1008.43
2019-01-11T03:51:53.801Z,1008.43
2019-01-11T03:52:53.794Z,1008.41
2019-01-11T03:53:53.810Z,1008.41
2019-01-11T03:54:53.772Z,1008.41
2019-01-11T03:55:53.762Z,1008.40
2019-01-11T03:56:53.752Z,1008.41
2019-01-11T03:57:53.743Z,1008.42
2019-01-11T03:58:53.730Z,1008.42
2019-01-11T03:59:53.735Z,1008.41
2019-01-11T04:00:53.706Z,1008.38
2019-01-11T04:01:53.705Z,1008.36
2019-01-11T04:02:53.687Z,1008.34
2019-01-11T04:03:53.673Z,1008.36
2019-01-11T04:04:53.682Z,1008.40
2019-01-11T04:05:53.651Z,1008.34
2019-01-11T04:06:53.677Z,1008.35
2019-01-11T04:07:53.633Z,1008.34
2019-01-11T04:08:53.625Z,1008.36
2019-01-11T04:09:53.615Z,1008.30
2019-01-11T04:10:53.634Z,1008.30
2019-01-11T04:11:53.588Z,1008.24
2019-01-11T04:12:53.577Z,1008.25
2019-01-11T04:13:53.568Z,1008.20
2019-01-11T04:14:53.557Z,1008.23
2019-01-11T04:15:53.548Z,1008.24
2019-01-11T04:16:53.564Z,1008.18
2019-01-11T04:17:53.523Z,1008.20
2019-01-11T04:18:53.520Z,1008.17
2019-01-11T04:19:53.508Z,1008.12
2019-01-11T04:20:53.497Z,1008.13
2019-01-11T04:21:53.487Z,1008.16
2019-01-11T04:22:53.504Z,1008.10
2019-01-11T04:23:53.485Z,1008.13
2019-01-11T04:24:53.448Z,1008.15
2019-01-11T04:25:53.442Z,1008.12
2019-01-11T04:26:53.436Z,1008.14
2019-01-11T04:27:53.422Z,1008.15
2019-01-11T04:28:53.431Z,1008.12
2019-01-11T04:29:53.409Z,1008.14
2019-01-11T04:30:53.390Z,1008.06
2019-01-11T04:31:53.377Z,1008.12
2019-01-11T04:32:53.367Z,1008.08
2019-01-11T04:33:53.379Z,1008.08
2019-01-11T04:34:53.346Z,1008.07
2019-01-11T04:35:53.362Z,1008.06
2019-01-11T04:36:53.373Z,1008.08
2019-01-11T04:37:53.310Z,1008.04
2019-01-11T04:38:53.305Z,1008.04
2019-01-11T04:39:53.294Z,1008.04
2019-01-11T04:40:53.285Z,1007.99
2019-01-11T04:41:53.289Z,1008.00
2019-01-11T04:42:53.257Z,1008.05
2019-01-11T04:43:53.262Z,1008.03
2019-01-11T04:44:53.273Z,1007.99
2019-01-11T04:45:53.231Z,1007.97
2019-01-11T04:46:53.226Z,1007.97
2019-01-11T04:47:53.207Z,1007.97
2019-01-11T04:48:53.206Z,1008.01
2019-01-11T04:49:53.203Z,1007.96
2019-01-11T04:50:53.204Z,1007.96
2019-01-11T04:51:53.164Z,1007.93
2019-01-11T04:52:53.155Z,1007.93
2019-01-11T04:53:53.172Z,1007.93
2019-01-11T04:54:53.129Z,1007.95
2019-01-11T04:55:53.126Z,1007.90
2019-01-11T04:56:53.130Z,1007.91
2019-01-11T04:57:53.103Z,1007.90
2019-01-11T04:58:53.095Z,1007.85
2019-01-11T04:59:53.076Z,1007.89
2019-01-11T05:00:53.084Z,1007.92
2019-01-11T05:01:53.082Z,1007.87
2019-01-11T05:02:53.045Z,1007.93
2019-01-11T05:03:53.041Z,1007.87
2019-01-11T05:04:53.031Z,1007.92
2019-01-11T05:05:53.048Z,1007.90
2019-01-11T05:06:53.003Z,1007.93
2019-01-11T05:07:53.024Z,1007.86
2019-01-11T05:08:52.985Z,1007.81
2019-01-11T05:09:52.978Z,1007.85
2019-01-11T05:10:52.964Z,1007.85
2019-01-11T05:11:52.953Z,1007.87
2019-01-11T05:12:52.941Z,1007.87
2019-01-11T05:13:52.949Z,1007.93
2019-01-11T05:14:52.916Z,1007.90
2019-01-11T05:15:52.914Z,1007.89
2019-01-11T05:16:52.900Z,1007.95
2019-01-11T05:17:52.896Z,1007.87
2019-01-11T05:18:52.899Z,1007.87
2019-01-11T05:19:52.882Z,1007.87
2019-01-11T05:20:52.879Z,1007.87
2019-01-11T05:21:52.878Z,1007.87
2019-01-11T05:22:52.839Z,1007.86
2019-01-11T05:23:52.841Z,1007.85
2019-01-11T05:24:52.813Z,1007.80
2019-01-11T05:25:52.807Z,1007.78
2019-01-11T05:26:52.790Z,1007.75
2019-01-11T05:27:52.789Z,1007.73
2019-01-11T05:28:52.789Z,1007.77
2019-01-11T05:29:52.781Z,1007.70
2019-01-11T05:30:52.756Z,1007.73
2019-01-11T05:31:52.737Z,1007.74
2019-01-11T05:32:52.727Z,1007.75
2019-01-11T05:33:52.739Z,1007.78
2019-01-11T05:34:52.730Z,1007.78
2019-01-11T05:35:52.704Z,1007.76
2019-01-11T05:36:52.687Z,1007.75
2019-01-11T05:37:52.678Z,1007.69
2019-01-11T05:38:52.688Z,1007.70
2019-01-11T05:39:52.659Z,1007.75
2019-01-11T05:40:52.664Z,1007.73
2019-01-11T05:41:52.638Z,1007.73
2019-01-11T05:42:52.636Z,1007.68
2019-01-11T05:43:52.609Z,1007.71
2019-01-11T05:44:52.621Z,1007.70
2019-01-11T05:45:52.594Z,1007.72
2019-01-11T05:46:52.598Z,1007.77
2019-01-11T05:47:52.604Z,1007.77
2019-01-11T05:48:52.569Z,1007.74
2019-01-11T05:49:52.567Z,1007.75
2019-01-11T05:50:52.543Z,1007.78
2019-01-11T05:51:52.530Z,1007.77
2019-01-11T05:52:52.519Z,1007.77
2019-01-11T05:53:52.535Z,1007.74
2019-01-11T05:54:52.516Z,1007.68
2019-01-11T05:55:52.482Z,1007.69
2019-01-11T05:56:52.472Z,1007.67
2019-01-11T05:57:52.462Z,1007.66
2019-01-11T05:58:52.484Z,1007.69
2019-01-11T05:59:52.456Z,1007.76
2019-01-11T06:00:52.432Z,1007.65
2019-01-11T06:01:52.457Z,1007.68
2019-01-11T06:02:52.417Z,1007.72
2019-01-11T06:03:52.413Z,1007.80
2019-01-11T06:04:52.412Z,1007.76
2019-01-11T06:05:52.377Z,1007.82
2019-01-11T06:06:52.372Z,1007.83
2019-01-11T06:07:52.364Z,1007.83
2019-01-11T06:08:52.392Z,1007.83
2019-01-11T06:09:52.358Z,1007.78
2019-01-11T06:10:52.328Z,1007.81
2019-01-11T06:11:52.318Z,1007.84
2019-01-11T06:12:52.304Z,1007.82
2019-01-11T06:13:52.296Z,1007.82
2019-01-11T06:14:52.287Z,1007.82
2019-01-11T06:15:52.287Z,1007.80
2019-01-11T06:16:52.283Z,1007.84
2019-01-11T06:17:52.260Z,1007.85
2019-01-11T06:18:52.238Z,1007.77
2019-01-11T06:19:52.233Z,1007.81
2019-01-11T06:20:52.249Z,1007.77
2019-01-11T06:21:52.214Z,1007.78
2019-01-11T06:22:52.207Z,1007.75
2019-01-11T06:23:52.182Z,1007.78
2019-01-11T06:24:52.192Z,1007.80
2019-01-11T06:25:52.171Z,1007.85
2019-01-11T06:26:52.159Z,1007.88
2019-01-11T06:27:52.142Z,1007.80
2019-01-11T06:28:52.163Z,1007.83
2019-01-11T06:29:52.142Z,1007.80
2019-01-11T06:30:52.109Z,1007.81
2019-01-11T06:31:52.106Z,1007.79
2019-01-11T06:32:52.091Z,1007.81
2019-01-11T06:33:52.103Z,1007.81
2019-01-11T06:34:52.103Z,1007.84
2019-01-11T06:35:52.055Z,1007.88
2019-01-11T06:36:52.047Z,1007.91
2019-01-11T06:37:52.036Z,1007.89
2019-01-11T06:38:52.023Z,1007.86
2019-01-11T06:39:52.044Z,1007.87
2019-01-11T06:40:52.017Z,1007.90
2019-01-11T06:41:51.996Z,1007.85
2019-01-11T06:42:51.993Z,1007.83
2019-01-11T06:43:51.979Z,1007.78
2019-01-11T06:44:51.983Z,1007.85
2019-01-11T06:45:51.989Z,1007.77
2019-01-11T06:46:51.951Z,1007.84
2019-01-11T06:47:51.927Z,1007.88
2019-01-11T06:48:51.918Z,1007.86
2019-01-11T06:49:51.929Z,1007.87
2019-01-11T06:50:51.894Z,1007.85
2019-01-11T06:51:51.891Z,1007.89
2019-01-11T06:52:51.886Z,1007.93
2019-01-11T06:53:51.870Z,1007.90
2019-01-11T06:54:51.878Z,1007.99
2019-01-11T06:55:51.860Z,1007.87
2019-01-11T06:56:51.833Z,1007.91
2019-01-11T06:57:51.829Z,1007.85
2019-01-11T06:58:51.830Z,1007.96
2019-01-11T06:59:51.816Z,1007.92
2019-01-11T07:00:51.820Z,1007.88
2019-01-11T07:01:51.813Z,1007.90
2019-01-11T07:02:51.767Z,1007.87
2019-01-11T07:03:51.781Z,1007.84
2019-01-11T07:04:51.767Z,1007.83
2019-01-11T07:05:51.769Z,1007.86
2019-01-11T07:06:51.736Z,1007.85
2019-01-11T07:07:51.714Z,1007.86
2019-01-11T07:08:51.704Z,1007.84
2019-01-11T07:09:51.702Z,1007.81
2019-01-11T07:10:51.685Z,1007.81
2019-01-11T07:11:51.697Z,1007.82
2019-01-11T07:12:51.666Z,1007.83
2019-01-11T07:13:51.664Z,1007.81
2019-01-11T07:14:51.640Z,1007.81
2019-01-11T07:15:51.662Z,1007.78
2019-01-11T07:16:51.657Z,1007.83
2019-01-11T07:17:51.636Z,1007.82
2019-01-11T07:18:51.608Z,1007.83
2019-01-11T07:19:51.590Z,1007.81
2019-01-11T07:20:51.582Z,1007.83
2019-01-11T07:21:51.586Z,1007.77
2019-01-11T07:22:51.557Z,1007.79
2019-01-11T07:23:51.555Z,1007.87
2019-01-11T07:24:51.538Z,1007.82
2019-01-11T07:25:51.554Z,1007.80
2019-01-11T07:26:51.521Z,1007.84
2019-01-11T07:27:51.502Z,1007.81
2019-01-11T07:28:51.492Z,1007.82
2019-01-11T07:29:51.487Z,1007.84
2019-01-11T07:30:51.479Z,1007.83
2019-01-11T07:31:51.477Z,1007.83
2019-01-11T07:32:51.451Z,1007.82
2019-01-11T07:33:51.440Z,1007.82
2019-01-11T07:34:51.432Z,1007.86
2019-01-11T07:35:51.461Z,1007.85
2019-01-11T07:36:51.429Z,1007.89
2019-01-11T07:37:51.406Z,1007.89
2019-01-11T07:38:51.451Z,1007.87
2019-01-11T07:39:51.374Z,1007.87
2019-01-11T07:40:51.369Z,1007.85
2019-01-11T07:41:51.373Z,1007.85
2019-01-11T07:42:51.343Z,1007.88
2019-01-11T07:43:51.345Z,1007.89
2019-01-11T07:44:51.325Z,1007.87
2019-01-11T07:45:51.323Z,1007.87
2019-01-11T07:46:51.324Z,1007.84
2019-01-11T07:47:51.296Z,1007.86
2019-01-11T07:48:51.284Z,1007.86
2019-01-11T07:49:51.272Z,1007.87
2019-01-11T07:50:51.268Z,1007.88
2019-01-11T07:51:51.255Z,1007.89
2019-01-11T07:52:51.258Z,1007.87
2019-01-11T07:53:51.226Z,1007.87
2019-01-11T07:54:51.214Z,1007.86
2019-01-11T07:55:51.212Z,1007.88
2019-01-11T07:56:51.210Z,1007.88
2019-01-11T07:57:51.207Z,1007.88
2019-01-11T07:58:51.227Z,1007.83
2019-01-11T07:59:51.247Z,1007.79
2019-01-11T08:00:51.152Z,1007.83
2019-01-11T08:01:51.151Z,1007.86
2019-01-11T08:02:51.156Z,1007.86
2019-01-11T08:03:51.120Z,1007.86
2019-01-11T08:04:51.137Z,1007.86
2019-01-11T08:05:51.100Z,1007.81
2019-01-11T08:06:51.098Z,1007.81
2019-01-11T08:07:51.085Z,1007.84
2019-01-11T08:08:51.078Z,1007.87
2019-01-11T08:09:51.064Z,1007.91
2019-01-11T08:10:51.075Z,1007.84
2019-01-11T08:11:51.037Z,1007.88
2019-01-11T08:12:51.045Z,1007.79
2019-01-11T08:13:51.015Z,1007.83
2019-01-11T08:14:51.003Z,1007.82
2019-01-11T08:15:51.015Z,1007.81
2019-01-11T08:16:50.996Z,1007.84
2019-01-11T08:17:50.993Z,1007.86
2019-01-11T08:18:50.992Z,1007.81
2019-01-11T08:19:50.983Z,1007.86
2019-01-11T08:20:56.233Z,1007.82
2019-01-11T08:21:51.932Z,1007.85
2019-01-11T08:22:50.952Z,1007.87
2019-01-11T08:23:50.906Z,1007.83
2019-01-11T08:24:50.899Z,1007.90
2019-01-11T08:25:50.909Z,1007.88
2019-01-11T08:26:50.906Z,1007.88
2019-01-11T08:27:50.871Z,1007.85
2019-01-11T08:28:50.870Z,1007.86
2019-01-11T08:29:50.849Z,1007.85
2019-01-11T08:30:50.846Z,1007.85
2019-01-11T08:31:50.822Z,1007.88
2019-01-11T08:32:50.834Z,1007.87
2019-01-11T08:33:50.824Z,1007.85
2019-01-11T08:34:50.798Z,1007.82
2019-01-11T08:35:50.793Z,1007.82
2019-01-11T08:36:50.781Z,1007.79
2019-01-11T08:37:50.778Z,1007.79
2019-01-11T08:38:50.753Z,1007.77
2019-01-11T08:39:50.746Z,1007.76
2019-01-11T08:40:50.784Z,1007.73
2019-01-11T08:41:50.767Z,1007.71
2019-01-11T08:42:50.799Z,1007.74
2019-01-11T08:43:50.727Z,1007.73
2019-01-11T08:44:50.689Z,1007.75
2019-01-11T08:45:50.681Z,1007.73
2019-01-11T08:46:50.670Z,1007.73
2019-01-11T08:47:50.661Z,1007.72
2019-01-11T08:48:50.674Z,1007.78
2019-01-11T08:49:50.636Z,1007.77
2019-01-11T08:50:50.626Z,1007.79
2019-01-11T08:51:50.629Z,1007.75
2019-01-11T08:52:50.610Z,1007.74
2019-01-11T08:53:50.600Z,1007.78
2019-01-11T08:54:50.608Z,1007.78
2019-01-11T08:55:50.573Z,1007.82
2019-01-11T08:56:50.565Z,1007.72
2019-01-11T08:57:50.601Z,1007.76
2019-01-11T08:58:50.746Z,1007.73
2019-01-11T08:59:50.552Z,1007.75
2019-01-11T09:00:50.528Z,1007.75
2019-01-11T09:01:50.522Z,1007.74
2019-01-11T09:02:50.530Z,1007.73
2019-01-11T09:03:50.491Z,1007.71
2019-01-11T09:04:50.502Z,1007.72
2019-01-11T09:05:50.472Z,1007.75
2019-01-11T09:06:50.460Z,1007.72
2019-01-11T09:07:50.450Z,1007.72
2019-01-11T09:08:50.433Z,1007.70
2019-01-11T09:09:50.446Z,1007.74
2019-01-11T09:10:50.416Z,1007.77
2019-01-11T09:11:50.412Z,1007.79
2019-01-11T09:12:50.398Z,1007.83
2019-01-11T09:13:50.387Z,1007.85
2019-01-11T09:14:50.377Z,1007.84
2019-01-11T09:15:50.379Z,1007.85
2019-01-11T09:16:50.351Z,1007.81
2019-01-11T09:17:50.339Z,1007.78
2019-01-11T09:18:50.377Z,1007.78
2019-01-11T09:19:50.339Z,1007.80
2019-01-11T09:20:50.313Z,1007.80
2019-01-11T09:21:50.298Z,1007.84
2019-01-11T09:22:50.299Z,1007.88
2019-01-11T09:23:50.302Z,1007.81
2019-01-11T09:24:50.345Z,1007.81
2019-01-11T09:25:50.264Z,1007.83
2019-01-11T09:26:51.553Z,1007.81
2019-01-11T09:27:50.239Z,1007.88
2019-01-11T09:28:50.225Z,1007.87
2019-01-11T09:29:50.218Z,1007.84
2019-01-11T09:30:50.226Z,1007.84
2019-01-11T09:31:50.195Z,1007.84
2019-01-11T09:32:50.185Z,1007.85
2019-01-11T09:33:50.176Z,1007.83
2019-01-11T09:34:50.167Z,1007.83
2019-01-11T09:35:50.167Z,1007.83
2019-01-11T09:36:50.138Z,1007.81
2019-01-11T09:37:50.152Z,1007.82
2019-01-11T09:38:50.121Z,1007.82
2019-01-11T09:39:50.110Z,1007.85
2019-01-11T09:40:50.097Z,1007.84
2019-01-11T09:41:50.089Z,1007.78
2019-01-11T09:42:50.103Z,1007.82
2019-01-11T09:43:50.092Z,1007.81
2019-01-11T09:44:50.140Z,1007.84
2019-01-11T09:45:50.106Z,1007.77
2019-01-11T09:46:50.045Z,1007.78
2019-01-11T09:47:50.024Z,1007.76
2019-01-11T09:48:50.036Z,1007.80
2019-01-11T09:49:50.001Z,1007.79
2019-01-11T09:50:49.990Z,1007.77
2019-01-11T09:51:49.985Z,1007.79
2019-01-11T09:52:49.973Z,1007.80
2019-01-11T09:53:49.957Z,1007.76
2019-01-11T09:54:49.967Z,1007.77
2019-01-11T09:55:49.937Z,1007.76
2019-01-11T09:56:49.977Z,1007.76
2019-01-11T09:57:49.919Z,1007.81
2019-01-11T09:58:49.907Z,1007.83
2019-01-11T09:59:49.911Z,1007.78
2019-01-11T10:00:49.900Z,1007.86
2019-01-11T10:01:49.868Z,1007.85
2019-01-11T10:02:49.867Z,1007.90
2019-01-11T10:03:49.854Z,1007.86
2019-01-11T10:04:49.867Z,1007.88
2019-01-11T10:05:50.165Z,1007.89
2019-01-11T10:06:49.891Z,1007.88
2019-01-11T10:07:49.809Z,1007.88
2019-01-11T10:08:49.808Z,1007.76
2019-01-11T10:09:49.790Z,1007.83
2019-01-11T10:10:49.799Z,1007.82
2019-01-11T10:11:49.772Z,1007.87
2019-01-11T10:12:49.754Z,1007.88
2019-01-11T10:13:49.757Z,1007.85
2019-01-11T10:14:49.735Z,1007.80
2019-01-11T10:15:49.747Z,1007.80
2019-01-11T10:16:49.754Z,1007.77
2019-01-11T10:17:49.707Z,1007.76
2019-01-11T10:18:49.694Z,1007.77
2019-01-11T10:19:49.688Z,1007.74
2019-01-11T10:20:49.669Z,1007.75
2019-01-11T10:21:49.660Z,1007.69
2019-01-11T10:22:49.675Z,1007.73
2019-01-11T10:23:49.638Z,1007.77
2019-01-11T10:24:49.646Z,1007.75
2019-01-11T10:25:49.615Z,1007.76
2019-01-11T10:26:49.621Z,1007.76
2019-01-11T10:27:49.687Z,1007.73
2019-01-11T10:28:49.588Z,1007.73
2019-01-11T10:29:49.580Z,1007.72
2019-01-11T10:30:49.567Z,1007.71
2019-01-11T10:31:49.551Z,1007.69
2019-01-11T10:32:49.539Z,1007.64
2019-01-11T10:33:49.550Z,1007.54
2019-01-11T10:34:49.520Z,1007.60
2019-01-11T10:35:49.511Z,1007.58
2019-01-11T10:36:49.504Z,1007.60
2019-01-11T10:37:49.491Z,1007.57
2019-01-11T10:38:49.501Z,1007.57
2019-01-11T10:39:49.468Z,1007.61
2019-01-11T10:40:49.452Z,1007.56
2019-01-11T10:41:49.447Z,1007.57
2019-01-11T10:42:49.441Z,1007.58
2019-01-11T10:43:49.424Z,1007.59
2019-01-11T10:44:49.427Z,1007.58
2019-01-11T10:45:49.398Z,1007.59
2019-01-11T10:46:49.396Z,1007.61
2019-01-11T10:47:49.429Z,1007.63
2019-01-11T10:48:49.424Z,1007.59
2019-01-11T10:49:49.384Z,1007.62
2019-01-11T10:50:49.349Z,1007.62
2019-01-11T10:51:49.361Z,1007.56
2019-01-11T10:52:49.323Z,1007.60
2019-01-11T10:53:49.310Z,1007.63
2019-01-11T10:54:49.305Z,1007.66
2019-01-11T10:55:49.314Z,1007.63
2019-01-11T10:56:49.303Z,1007.65
2019-01-11T10:57:49.268Z,1007.64
2019-01-11T10:58:49.292Z,1007.65
2019-01-11T10:59:49.250Z,1007.63
2019-01-11T11:00:49.263Z,1007.62
2019-01-11T11:01:49.399Z,1007.61
2019-01-11T11:02:49.222Z,1007.66
2019-01-11T11:03:49.210Z,1007.60
2019-01-11T11:04:49.193Z,1007.64
2019-01-11T11:05:49.191Z,1007.61
2019-01-11T11:06:49.174Z,1007.61
2019-01-11T11:07:49.189Z,1007.66
2019-01-11T11:08:49.193Z,1007.64
2019-01-11T11:09:49.207Z,1007.57
2019-01-11T11:10:49.136Z,1007.60
2019-01-11T11:11:49.125Z,1007.60
2019-01-11T11:12:49.135Z,1007.57
2019-01-11T11:13:49.117Z,1007.59
2019-01-11T11:14:49.092Z,1007.60
2019-01-11T11:15:49.080Z,1007.55
2019-01-11T11:16:49.069Z,1007.61
2019-01-11T11:17:49.055Z,1007.54
2019-01-11T11:18:49.099Z,1007.56
2019-01-11T11:19:49.041Z,1007.55
2019-01-11T11:20:49.030Z,1007.53
2019-01-11T11:21:49.037Z,1007.48
2019-01-11T11:22:49.015Z,1007.48
2019-01-11T11:23:49.015Z,1007.42
2019-01-11T11:24:48.980Z,1007.44
2019-01-11T11:25:48.969Z,1007.41
2019-01-11T11:26:48.979Z,1007.37
2019-01-11T11:27:48.952Z,1007.44
2019-01-11T11:28:48.943Z,1007.39
2019-01-11T11:29:48.940Z,1007.35
2019-01-11T11:30:51.007Z,1007.28
2019-01-11T11:31:48.932Z,1007.29
2019-01-11T11:32:48.908Z,1007.30
2019-01-11T11:33:48.891Z,1007.29
2019-01-11T11:34:48.878Z,1007.25
2019-01-11T11:35:48.880Z,1007.28
2019-01-11T11:36:48.878Z,1007.26
2019-01-11T11:37:48.841Z,1007.23
2019-01-11T11:38:48.839Z,1007.21
2019-01-11T11:39:48.823Z,1007.22
2019-01-11T11:40:48.817Z,1007.22
2019-01-11T11:41:48.823Z,1007.23
2019-01-11T11:42:49.304Z,1007.26
2019-01-11T11:43:48.780Z,1007.15
2019-01-11T11:44:48.766Z,1007.12
2019-01-11T11:45:48.763Z,1007.17
2019-01-11T11:46:48.768Z,1007.13
2019-01-11T11:47:48.757Z,1007.13
2019-01-11T11:48:48.729Z,1007.08
2019-01-11T11:49:48.715Z,1007.05
2019-01-11T11:50:48.715Z,1007.06
2019-01-11T11:51:48.754Z,1007.09
2019-01-11T11:52:48.707Z,1007.06
2019-01-11T11:53:48.677Z,1007.08
2019-01-11T11:54:48.662Z,1007.06
2019-01-11T11:55:48.649Z,1007.05
2019-01-11T11:56:48.637Z,1007.01
2019-01-11T11:57:48.647Z,1007.03
2019-01-11T11:58:48.617Z,1007.05
2019-01-11T11:59:48.613Z,1007.00
2019-01-11T12:00:48.604Z,1006.98
2019-01-11T12:01:52.361Z,1007.01
2019-01-11T12:02:48.611Z,1007.01
2019-01-11T12:03:48.570Z,1006.99
2019-01-11T12:04:48.642Z,1006.98
2019-01-11T12:05:48.547Z,1006.95